sensor_id;sensor_type;location;lat;lon;timestamp;temperature;humidity
1704;DHT22;849;48.780;9.216;2023-04-15T00:01:25;10.10;92.20
1704;DHT22;849;48.780;9.216;2023-04-15T00:03:52;10.20;92.30
1704;DHT22;849;48.780;9.216;2023-04-15T00:06:19;10.10;92.10
1704;DHT22;849;48.780;9.216;2023-04-15T00:08:45;10.10;92.30
1704;DHT22;849;48.780;9.216;2023-04-15T00:11:11;10.10;92.40
1704;DHT22;849;48.780;9.216;2023-04-15T00:13:37;10.00;92.40
1704;DHT22;849;48.780;9.216;2023-04-15T00:16:05;10.00;92.80
1704;DHT22;849;48.780;9.216;2023-04-15T00:18:31;9.90;93.20
1704;DHT22;849;48.780;9.216;2023-04-15T00:20:57;10.00;92.70
1704;DHT22;849;48.780;9.216;2023-04-15T00:23:23;9.90;93.30
1704;DHT22;849;48.780;9.216;2023-04-15T00:25:49;9.80;93.50
1704;DHT22;849;48.780;9.216;2023-04-15T00:28:15;9.80;93.90
1704;DHT22;849;48.780;9.216;2023-04-15T00:30:42;9.80;93.70
1704;DHT22;849;48.780;9.216;2023-04-15T00:33:07;9.80;93.90
1704;DHT22;849;48.780;9.216;2023-04-15T00:35:33;9.80;93.80
1704;DHT22;849;48.780;9.216;2023-04-15T00:38:00;9.80;94.00
1704;DHT22;849;48.780;9.216;2023-04-15T00:40:25;9.80;93.90
1704;DHT22;849;48.780;9.216;2023-04-15T00:42:52;9.70;93.90
1704;DHT22;849;48.780;9.216;2023-04-15T00:45:17;9.70;94.00
1704;DHT22;849;48.780;9.216;2023-04-15T00:47:44;9.70;93.90
1704;DHT22;849;48.780;9.216;2023-04-15T00:50:11;9.70;94.10
1704;DHT22;849;48.780;9.216;2023-04-15T00:52:37;9.60;94.20
1704;DHT22;849;48.780;9.216;2023-04-15T00:55:04;9.60;94.40
1704;DHT22;849;48.780;9.216;2023-04-15T00:57:30;9.70;94.30
1704;DHT22;849;48.780;9.216;2023-04-15T00:59:57;9.70;94.30
1704;DHT22;849;48.780;9.216;2023-04-15T01:02:23;9.70;94.30
1704;DHT22;849;48.780;9.216;2023-04-15T01:04:49;9.70;94.10
1704;DHT22;849;48.780;9.216;2023-04-15T01:07:15;9.60;94.40
1704;DHT22;849;48.780;9.216;2023-04-15T01:09:41;9.50;94.70
1704;DHT22;849;48.780;9.216;2023-04-15T01:12:09;9.50;94.70
1704;DHT22;849;48.780;9.216;2023-04-15T01:14:36;9.40;95.00
1704;DHT22;849;48.780;9.216;2023-04-15T01:17:02;9.40;95.20
1704;DHT22;849;48.780;9.216;2023-04-15T01:19:28;9.40;95.30
1704;DHT22;849;48.780;9.216;2023-04-15T01:21:54;9.40;95.20
1704;DHT22;849;48.780;9.216;2023-04-15T01:24:19;9.30;95.00
1704;DHT22;849;48.780;9.216;2023-04-15T01:26:46;9.30;95.40
1704;DHT22;849;48.780;9.216;2023-04-15T01:29:13;9.30;95.50
1704;DHT22;849;48.780;9.216;2023-04-15T01:31:39;9.30;95.20
1704;DHT22;849;48.780;9.216;2023-04-15T01:34:05;9.30;95.20
1704;DHT22;849;48.780;9.216;2023-04-15T01:36:31;9.20;95.40
1704;DHT22;849;48.780;9.216;2023-04-15T01:38:57;9.20;95.50
1704;DHT22;849;48.780;9.216;2023-04-15T01:41:27;9.20;95.50
1704;DHT22;849;48.780;9.216;2023-04-15T01:43:53;9.10;95.70
1704;DHT22;849;48.780;9.216;2023-04-15T01:46:19;9.10;95.80
1704;DHT22;849;48.780;9.216;2023-04-15T01:48:45;9.00;96.10
1704;DHT22;849;48.780;9.216;2023-04-15T01:51:11;9.10;96.10
1704;DHT22;849;48.780;9.216;2023-04-15T01:53:37;9.10;95.90
1704;DHT22;849;48.780;9.216;2023-04-15T01:56:03;9.00;96.30
1704;DHT22;849;48.780;9.216;2023-04-15T01:58:29;8.90;96.70
1704;DHT22;849;48.780;9.216;2023-04-15T02:00:55;9.00;96.60
1704;DHT22;849;48.780;9.216;2023-04-15T02:03:22;8.90;96.70
1704;DHT22;849;48.780;9.216;2023-04-15T02:05:48;8.90;96.50
1704;DHT22;849;48.780;9.216;2023-04-15T02:08:13;8.80;96.80
1704;DHT22;849;48.780;9.216;2023-04-15T02:10:39;8.70;97.00
1704;DHT22;849;48.780;9.216;2023-04-15T02:13:05;8.80;97.20
1704;DHT22;849;48.780;9.216;2023-04-15T02:15:30;8.90;97.20
1704;DHT22;849;48.780;9.216;2023-04-15T02:17:56;8.90;97.00
1704;DHT22;849;48.780;9.216;2023-04-15T02:20:23;8.90;96.80
1704;DHT22;849;48.780;9.216;2023-04-15T02:22:49;8.90;96.80
1704;DHT22;849;48.780;9.216;2023-04-15T02:25:15;8.90;96.80
1704;DHT22;849;48.780;9.216;2023-04-15T02:27:44;8.90;96.80
1704;DHT22;849;48.780;9.216;2023-04-15T02:30:10;8.90;96.70
1704;DHT22;849;48.780;9.216;2023-04-15T02:32:36;9.00;96.70
1704;DHT22;849;48.780;9.216;2023-04-15T02:35:04;9.00;96.30
1704;DHT22;849;48.780;9.216;2023-04-15T02:37:30;8.90;96.20
1704;DHT22;849;48.780;9.216;2023-04-15T02:39:56;8.80;96.50
1704;DHT22;849;48.780;9.216;2023-04-15T02:42:22;8.70;96.90
1704;DHT22;849;48.780;9.216;2023-04-15T02:44:47;8.70;96.90
1704;DHT22;849;48.780;9.216;2023-04-15T02:47:13;8.60;96.90
1704;DHT22;849;48.780;9.216;2023-04-15T02:49:40;8.60;97.20
1704;DHT22;849;48.780;9.216;2023-04-15T02:52:06;8.60;97.20
1704;DHT22;849;48.780;9.216;2023-04-15T02:54:32;8.50;97.20
1704;DHT22;849;48.780;9.216;2023-04-15T02:56:58;8.60;97.50
1704;DHT22;849;48.780;9.216;2023-04-15T02:59:24;8.60;97.30
1704;DHT22;849;48.780;9.216;2023-04-15T03:01:50;8.60;97.10
1704;DHT22;849;48.780;9.216;2023-04-15T03:04:16;8.60;97.10
1704;DHT22;849;48.780;9.216;2023-04-15T03:06:41;8.60;96.80
1704;DHT22;849;48.780;9.216;2023-04-15T03:09:07;8.50;97.00
1704;DHT22;849;48.780;9.216;2023-04-15T03:11:33;8.50;97.30
1704;DHT22;849;48.780;9.216;2023-04-15T03:14:01;8.50;97.50
1704;DHT22;849;48.780;9.216;2023-04-15T03:16:26;8.50;97.60
1704;DHT22;849;48.780;9.216;2023-04-15T03:18:52;8.50;97.60
1704;DHT22;849;48.780;9.216;2023-04-15T03:21:18;8.50;97.60
1704;DHT22;849;48.780;9.216;2023-04-15T03:23:44;8.50;97.60
1704;DHT22;849;48.780;9.216;2023-04-15T03:26:28;8.50;97.80
1704;DHT22;849;48.780;9.216;2023-04-15T03:28:55;8.50;97.80
1704;DHT22;849;48.780;9.216;2023-04-15T03:31:21;8.50;97.70
1704;DHT22;849;48.780;9.216;2023-04-15T03:33:47;8.50;97.80
1704;DHT22;849;48.780;9.216;2023-04-15T03:36:12;8.50;98.00
1704;DHT22;849;48.780;9.216;2023-04-15T03:38:38;8.50;98.00
1704;DHT22;849;48.780;9.216;2023-04-15T03:41:03;8.30;98.10
1704;DHT22;849;48.780;9.216;2023-04-15T03:43:30;8.30;98.90
1704;DHT22;849;48.780;9.216;2023-04-15T03:45:56;8.30;98.80
1704;DHT22;849;48.780;9.216;2023-04-15T03:48:22;8.40;98.60
1704;DHT22;849;48.780;9.216;2023-04-15T03:50:48;8.40;98.50
1704;DHT22;849;48.780;9.216;2023-04-15T03:53:14;8.30;98.60
1704;DHT22;849;48.780;9.216;2023-04-15T03:55:40;8.30;98.70
1704;DHT22;849;48.780;9.216;2023-04-15T03:58:06;8.30;98.80
1704;DHT22;849;48.780;9.216;2023-04-15T04:00:31;8.40;98.70
1704;DHT22;849;48.780;9.216;2023-04-15T04:02:57;8.40;98.70
1704;DHT22;849;48.780;9.216;2023-04-15T04:05:23;8.40;98.40
1704;DHT22;849;48.780;9.216;2023-04-15T04:07:48;8.30;98.70
1704;DHT22;849;48.780;9.216;2023-04-15T04:10:14;8.30;98.50
1704;DHT22;849;48.780;9.216;2023-04-15T04:12:40;8.30;98.80
1704;DHT22;849;48.780;9.216;2023-04-15T04:15:06;8.20;98.90
1704;DHT22;849;48.780;9.216;2023-04-15T04:17:32;8.20;98.90
1704;DHT22;849;48.780;9.216;2023-04-15T04:19:58;8.10;99.00
1704;DHT22;849;48.780;9.216;2023-04-15T04:22:25;8.20;99.10
1704;DHT22;849;48.780;9.216;2023-04-15T04:24:50;8.20;99.00
1704;DHT22;849;48.780;9.216;2023-04-15T04:27:17;8.20;99.00
1704;DHT22;849;48.780;9.216;2023-04-15T04:29:43;8.30;98.80
1704;DHT22;849;48.780;9.216;2023-04-15T04:32:09;8.30;98.70
1704;DHT22;849;48.780;9.216;2023-04-15T04:34:35;8.20;98.70
1704;DHT22;849;48.780;9.216;2023-04-15T04:37:01;8.20;98.60
1704;DHT22;849;48.780;9.216;2023-04-15T04:39:26;8.20;98.60
1704;DHT22;849;48.780;9.216;2023-04-15T04:41:52;8.20;98.50
1704;DHT22;849;48.780;9.216;2023-04-15T04:44:17;8.00;98.60
1704;DHT22;849;48.780;9.216;2023-04-15T04:46:43;8.10;98.80
1704;DHT22;849;48.780;9.216;2023-04-15T04:49:09;8.10;98.60
1704;DHT22;849;48.780;9.216;2023-04-15T04:51:34;8.10;98.70
1704;DHT22;849;48.780;9.216;2023-04-15T04:54:00;8.00;98.80
1704;DHT22;849;48.780;9.216;2023-04-15T04:56:26;8.00;99.10
1704;DHT22;849;48.780;9.216;2023-04-15T04:58:52;8.00;98.90
1704;DHT22;849;48.780;9.216;2023-04-15T05:01:17;8.00;99.00
1704;DHT22;849;48.780;9.216;2023-04-15T05:03:43;8.00;99.20
1704;DHT22;849;48.780;9.216;2023-04-15T05:06:09;7.90;99.20
1704;DHT22;849;48.780;9.216;2023-04-15T05:08:35;8.00;99.20
1704;DHT22;849;48.780;9.216;2023-04-15T05:11:02;7.80;99.30
1704;DHT22;849;48.780;9.216;2023-04-15T05:13:28;7.80;99.80
1704;DHT22;849;48.780;9.216;2023-04-15T05:15:54;7.90;99.80
1704;DHT22;849;48.780;9.216;2023-04-15T05:18:20;7.90;99.80
1704;DHT22;849;48.780;9.216;2023-04-15T05:20:46;7.90;99.50
1704;DHT22;849;48.780;9.216;2023-04-15T05:23:11;7.80;99.60
1704;DHT22;849;48.780;9.216;2023-04-15T05:25:37;7.70;99.90
1704;DHT22;849;48.780;9.216;2023-04-15T05:28:03;7.70;99.90
1704;DHT22;849;48.780;9.216;2023-04-15T05:30:28;7.80;99.90
1704;DHT22;849;48.780;9.216;2023-04-15T05:32:54;7.90;99.90
1704;DHT22;849;48.780;9.216;2023-04-15T05:35:20;7.90;99.90
1704;DHT22;849;48.780;9.216;2023-04-15T05:37:46;8.00;99.90
1704;DHT22;849;48.780;9.216;2023-04-15T05:40:11;8.10;99.90
1704;DHT22;849;48.780;9.216;2023-04-15T05:42:37;8.10;99.90
1704;DHT22;849;48.780;9.216;2023-04-15T05:45:03;8.20;99.90
1704;DHT22;849;48.780;9.216;2023-04-15T05:47:36;8.30;99.90
1704;DHT22;849;48.780;9.216;2023-04-15T05:50:02;8.30;99.90
1704;DHT22;849;48.780;9.216;2023-04-15T05:52:29;8.20;99.90
1704;DHT22;849;48.780;9.216;2023-04-15T05:54:55;8.20;99.90
1704;DHT22;849;48.780;9.216;2023-04-15T05:57:20;8.30;99.90
1704;DHT22;849;48.780;9.216;2023-04-15T05:59:46;8.30;99.90
1704;DHT22;849;48.780;9.216;2023-04-15T06:02:12;8.30;99.90
1704;DHT22;849;48.780;9.216;2023-04-15T06:04:38;8.40;99.90
1704;DHT22;849;48.780;9.216;2023-04-15T06:07:03;8.40;99.90
1704;DHT22;849;48.780;9.216;2023-04-15T06:09:29;8.40;99.90
1704;DHT22;849;48.780;9.216;2023-04-15T06:11:55;8.50;99.90
1704;DHT22;849;48.780;9.216;2023-04-15T06:14:22;8.50;99.90
1704;DHT22;849;48.780;9.216;2023-04-15T06:16:48;8.60;99.90
1704;DHT22;849;48.780;9.216;2023-04-15T06:19:13;8.70;99.90
1704;DHT22;849;48.780;9.216;2023-04-15T06:21:39;8.70;99.90
1704;DHT22;849;48.780;9.216;2023-04-15T06:24:05;8.70;99.90
1704;DHT22;849;48.780;9.216;2023-04-15T06:26:30;8.80;99.90
1704;DHT22;849;48.780;9.216;2023-04-15T06:28:56;8.70;99.90
1704;DHT22;849;48.780;9.216;2023-04-15T06:31:22;8.90;99.90
1704;DHT22;849;48.780;9.216;2023-04-15T06:33:47;9.10;99.90
1704;DHT22;849;48.780;9.216;2023-04-15T06:36:13;9.20;99.90
1704;DHT22;849;48.780;9.216;2023-04-15T06:38:39;9.20;99.90
1704;DHT22;849;48.780;9.216;2023-04-15T06:41:05;9.20;99.90
1704;DHT22;849;48.780;9.216;2023-04-15T06:43:31;9.20;99.90
1704;DHT22;849;48.780;9.216;2023-04-15T06:45:56;9.40;99.90
1704;DHT22;849;48.780;9.216;2023-04-15T06:48:22;9.50;99.90
1704;DHT22;849;48.780;9.216;2023-04-15T06:50:48;9.60;99.90
1704;DHT22;849;48.780;9.216;2023-04-15T06:53:14;9.70;99.90
1704;DHT22;849;48.780;9.216;2023-04-15T06:55:40;9.70;99.90
1704;DHT22;849;48.780;9.216;2023-04-15T06:58:06;9.80;99.90
1704;DHT22;849;48.780;9.216;2023-04-15T07:00:32;9.90;99.90
1704;DHT22;849;48.780;9.216;2023-04-15T07:02:59;10.00;99.30
1704;DHT22;849;48.780;9.216;2023-04-15T07:05:28;9.90;99.90
1704;DHT22;849;48.780;9.216;2023-04-15T07:07:54;10.00;99.40
1704;DHT22;849;48.780;9.216;2023-04-15T07:10:20;10.00;99.20
1704;DHT22;849;48.780;9.216;2023-04-15T07:12:47;10.10;99.30
1704;DHT22;849;48.780;9.216;2023-04-15T07:15:13;10.20;99.10
1704;DHT22;849;48.780;9.216;2023-04-15T07:18:13;10.30;98.30
1704;DHT22;849;48.780;9.216;2023-04-15T07:20:33;10.30;97.50
1704;DHT22;849;48.780;9.216;2023-04-15T07:22:59;10.40;97.60
1704;DHT22;849;48.780;9.216;2023-04-15T07:25:25;10.50;97.50
1704;DHT22;849;48.780;9.216;2023-04-15T07:27:52;10.50;97.50
1704;DHT22;849;48.780;9.216;2023-04-15T07:30:17;10.30;97.20
1704;DHT22;849;48.780;9.216;2023-04-15T07:32:43;10.40;97.20
1704;DHT22;849;48.780;9.216;2023-04-15T07:35:08;10.40;97.00
1704;DHT22;849;48.780;9.216;2023-04-15T07:37:35;10.30;97.40
1704;DHT22;849;48.780;9.216;2023-04-15T07:40:01;10.50;98.10
1704;DHT22;849;48.780;9.216;2023-04-15T07:42:26;10.70;98.40
1704;DHT22;849;48.780;9.216;2023-04-15T07:44:53;10.80;98.20
1704;DHT22;849;48.780;9.216;2023-04-15T07:47:19;10.90;97.50
1704;DHT22;849;48.780;9.216;2023-04-15T07:49:47;10.90;97.40
1704;DHT22;849;48.780;9.216;2023-04-15T07:52:13;10.90;97.90
1704;DHT22;849;48.780;9.216;2023-04-15T07:54:39;11.00;97.60
1704;DHT22;849;48.780;9.216;2023-04-15T07:57:04;11.00;98.00
1704;DHT22;849;48.780;9.216;2023-04-15T07:59:30;11.10;97.70
1704;DHT22;849;48.780;9.216;2023-04-15T08:01:57;11.20;97.60
1704;DHT22;849;48.780;9.216;2023-04-15T08:04:23;11.10;97.00
1704;DHT22;849;48.780;9.216;2023-04-15T08:06:49;11.00;97.00
1704;DHT22;849;48.780;9.216;2023-04-15T08:09:15;11.10;97.80
1704;DHT22;849;48.780;9.216;2023-04-15T08:11:41;11.30;97.60
1704;DHT22;849;48.780;9.216;2023-04-15T08:14:07;11.30;96.50
1704;DHT22;849;48.780;9.216;2023-04-15T08:16:32;11.40;96.30
1704;DHT22;849;48.780;9.216;2023-04-15T08:18:58;11.40;97.00
1704;DHT22;849;48.780;9.216;2023-04-15T08:21:24;11.50;97.00
1704;DHT22;849;48.780;9.216;2023-04-15T08:23:51;11.70;96.00
1704;DHT22;849;48.780;9.216;2023-04-15T08:26:18;11.70;94.10
1704;DHT22;849;48.780;9.216;2023-04-15T08:28:44;11.60;94.40
1704;DHT22;849;48.780;9.216;2023-04-15T08:31:14;11.70;94.70
1704;DHT22;849;48.780;9.216;2023-04-15T08:33:41;11.70;94.90
1704;DHT22;849;48.780;9.216;2023-04-15T08:36:07;11.70;95.20
1704;DHT22;849;48.780;9.216;2023-04-15T08:38:33;11.80;95.60
1704;DHT22;849;48.780;9.216;2023-04-15T08:41:01;12.00;94.70
1704;DHT22;849;48.780;9.216;2023-04-15T08:43:33;12.00;94.40
1704;DHT22;849;48.780;9.216;2023-04-15T08:45:59;12.10;94.30
1704;DHT22;849;48.780;9.216;2023-04-15T08:48:28;12.10;94.90
1704;DHT22;849;48.780;9.216;2023-04-15T08:50:54;12.30;94.90
1704;DHT22;849;48.780;9.216;2023-04-15T08:53:20;12.40;94.30
1704;DHT22;849;48.780;9.216;2023-04-15T08:55:50;12.40;93.50
1704;DHT22;849;48.780;9.216;2023-04-15T08:58:17;12.60;94.00
1704;DHT22;849;48.780;9.216;2023-04-15T09:00:44;12.70;93.10
1704;DHT22;849;48.780;9.216;2023-04-15T09:03:10;12.80;92.60
1704;DHT22;849;48.780;9.216;2023-04-15T09:05:36;12.80;90.80
1704;DHT22;849;48.780;9.216;2023-04-15T09:08:03;12.80;90.10
1704;DHT22;849;48.780;9.216;2023-04-15T09:10:30;12.80;89.20
1704;DHT22;849;48.780;9.216;2023-04-15T09:12:56;12.60;90.20
1704;DHT22;849;48.780;9.216;2023-04-15T09:15:25;12.70;90.40
1704;DHT22;849;48.780;9.216;2023-04-15T09:17:54;12.90;90.10
1704;DHT22;849;48.780;9.216;2023-04-15T09:20:21;12.90;89.20
1704;DHT22;849;48.780;9.216;2023-04-15T09:22:48;13.00;89.30
1704;DHT22;849;48.780;9.216;2023-04-15T09:27:50;13.40;88.90
1704;DHT22;849;48.780;9.216;2023-04-15T09:30:16;13.30;87.20
1704;DHT22;849;48.780;9.216;2023-04-15T09:32:52;13.20;89.80
1704;DHT22;849;48.780;9.216;2023-04-15T09:35:20;13.40;86.40
1704;DHT22;849;48.780;9.216;2023-04-15T09:37:46;13.30;86.40
1704;DHT22;849;48.780;9.216;2023-04-15T09:40:12;13.40;85.90
1704;DHT22;849;48.780;9.216;2023-04-15T09:42:58;13.10;85.60
1704;DHT22;849;48.780;9.216;2023-04-15T09:45:23;13.30;86.50
1704;DHT22;849;48.780;9.216;2023-04-15T09:47:49;13.30;83.90
1704;DHT22;849;48.780;9.216;2023-04-15T09:50:16;13.60;83.70
1704;DHT22;849;48.780;9.216;2023-04-15T09:52:42;13.80;84.40
1704;DHT22;849;48.780;9.216;2023-04-15T09:55:08;13.90;82.90
1704;DHT22;849;48.780;9.216;2023-04-15T09:57:35;14.20;79.70
1704;DHT22;849;48.780;9.216;2023-04-15T10:00:05;14.00;76.80
1704;DHT22;849;48.780;9.216;2023-04-15T10:02:36;14.00;76.50
1704;DHT22;849;48.780;9.216;2023-04-15T10:05:02;14.00;75.80
1704;DHT22;849;48.780;9.216;2023-04-15T10:07:28;14.00;75.30
1704;DHT22;849;48.780;9.216;2023-04-15T10:09:55;13.60;74.70
1704;DHT22;849;48.780;9.216;2023-04-15T10:12:21;13.70;75.30
1704;DHT22;849;48.780;9.216;2023-04-15T10:14:52;13.90;75.50
1704;DHT22;849;48.780;9.216;2023-04-15T10:17:21;14.00;73.80
1704;DHT22;849;48.780;9.216;2023-04-15T10:19:48;13.90;76.20
1704;DHT22;849;48.780;9.216;2023-04-15T10:22:14;14.00;76.30
1704;DHT22;849;48.780;9.216;2023-04-15T10:24:41;14.00;77.10
1704;DHT22;849;48.780;9.216;2023-04-15T10:27:07;14.10;76.60
1704;DHT22;849;48.780;9.216;2023-04-15T10:29:33;14.20;74.30
1704;DHT22;849;48.780;9.216;2023-04-15T10:32:00;14.40;72.90
1704;DHT22;849;48.780;9.216;2023-04-15T10:34:26;14.30;73.20
1704;DHT22;849;48.780;9.216;2023-04-15T10:37:03;14.20;76.60
1704;DHT22;849;48.780;9.216;2023-04-15T10:39:44;14.30;73.70
1704;DHT22;849;48.780;9.216;2023-04-15T10:42:15;14.20;75.90
1704;DHT22;849;48.780;9.216;2023-04-15T10:44:42;14.30;74.70
1704;DHT22;849;48.780;9.216;2023-04-15T10:47:13;14.60;75.00
1704;DHT22;849;48.780;9.216;2023-04-15T10:49:47;14.70;73.60
1704;DHT22;849;48.780;9.216;2023-04-15T10:52:14;14.40;72.30
1704;DHT22;849;48.780;9.216;2023-04-15T10:54:41;14.60;72.80
1704;DHT22;849;48.780;9.216;2023-04-15T10:57:14;14.70;70.30
1704;DHT22;849;48.780;9.216;2023-04-15T11:02:37;14.70;68.20
1704;DHT22;849;48.780;9.216;2023-04-15T11:05:04;14.60;67.90
1704;DHT22;849;48.780;9.216;2023-04-15T11:07:37;14.20;70.00
1704;DHT22;849;48.780;9.216;2023-04-15T11:12:56;14.00;69.10
1704;DHT22;849;48.780;9.216;2023-04-15T11:15:29;14.20;70.40
1704;DHT22;849;48.780;9.216;2023-04-15T11:17:56;14.30;71.70
1704;DHT22;849;48.780;9.216;2023-04-15T11:20:22;14.60;68.90
1704;DHT22;849;48.780;9.216;2023-04-15T11:22:50;14.70;67.20
1704;DHT22;849;48.780;9.216;2023-04-15T11:25:29;14.60;69.20
1704;DHT22;849;48.780;9.216;2023-04-15T11:27:56;14.60;68.40
1704;DHT22;849;48.780;9.216;2023-04-15T11:30:27;14.90;66.80
1704;DHT22;849;48.780;9.216;2023-04-15T11:33:04;14.90;63.60
1704;DHT22;849;48.780;9.216;2023-04-15T11:35:29;15.00;65.20
1704;DHT22;849;48.780;9.216;2023-04-15T11:37:55;14.40;65.40
1704;DHT22;849;48.780;9.216;2023-04-15T11:40:23;14.10;66.30
1704;DHT22;849;48.780;9.216;2023-04-15T11:45:34;13.90;69.60
1704;DHT22;849;48.780;9.216;2023-04-15T11:48:10;14.20;68.80
1704;DHT22;849;48.780;9.216;2023-04-15T11:50:36;14.30;70.10
1704;DHT22;849;48.780;9.216;2023-04-15T11:53:06;14.20;68.50
1704;DHT22;849;48.780;9.216;2023-04-15T11:55:41;14.20;69.10
1704;DHT22;849;48.780;9.216;2023-04-15T11:58:28;14.00;69.80
1704;DHT22;849;48.780;9.216;2023-04-15T12:00:57;13.90;72.30
1704;DHT22;849;48.780;9.216;2023-04-15T12:03:42;13.80;71.30
1704;DHT22;849;48.780;9.216;2023-04-15T12:06:20;14.00;72.80
1704;DHT22;849;48.780;9.216;2023-04-15T12:09:11;14.30;74.00
1704;DHT22;849;48.780;9.216;2023-04-15T12:11:49;14.70;71.70
1704;DHT22;849;48.780;9.216;2023-04-15T12:14:20;15.00;72.10
1704;DHT22;849;48.780;9.216;2023-04-15T12:16:49;15.10;67.80
1704;DHT22;849;48.780;9.216;2023-04-15T12:19:17;14.80;68.20
1704;DHT22;849;48.780;9.216;2023-04-15T12:21:45;14.70;69.30
1704;DHT22;849;48.780;9.216;2023-04-15T12:24:12;14.40;70.00
1704;DHT22;849;48.780;9.216;2023-04-15T12:26:47;14.30;71.20
1704;DHT22;849;48.780;9.216;2023-04-15T12:29:14;14.30;70.30
1704;DHT22;849;48.780;9.216;2023-04-15T12:31:52;14.10;69.20
1704;DHT22;849;48.780;9.216;2023-04-15T12:34:39;13.80;71.70
1704;DHT22;849;48.780;9.216;2023-04-15T12:37:07;13.40;77.00
1704;DHT22;849;48.780;9.216;2023-04-15T12:39:38;13.00;89.60
1704;DHT22;849;48.780;9.216;2023-04-15T12:42:05;12.50;98.70
1704;DHT22;849;48.780;9.216;2023-04-15T12:44:32;12.00;99.90
1704;DHT22;849;48.780;9.216;2023-04-15T12:46:58;11.70;99.90
1704;DHT22;849;48.780;9.216;2023-04-15T12:49:24;11.40;99.90
1704;DHT22;849;48.780;9.216;2023-04-15T12:51:57;11.40;99.90
1704;DHT22;849;48.780;9.216;2023-04-15T12:54:27;11.30;99.90
1704;DHT22;849;48.780;9.216;2023-04-15T12:56:53;11.40;99.90
1704;DHT22;849;48.780;9.216;2023-04-15T12:59:19;11.60;99.90
1704;DHT22;849;48.780;9.216;2023-04-15T13:01:46;11.80;99.90
1704;DHT22;849;48.780;9.216;2023-04-15T13:04:13;12.00;99.90
1704;DHT22;849;48.780;9.216;2023-04-15T13:06:39;12.10;99.90
1704;DHT22;849;48.780;9.216;2023-04-15T13:09:04;12.40;99.90
1704;DHT22;849;48.780;9.216;2023-04-15T13:11:31;12.70;99.90
1704;DHT22;849;48.780;9.216;2023-04-15T13:14:02;13.00;99.90
1704;DHT22;849;48.780;9.216;2023-04-15T13:16:29;13.30;99.90
1704;DHT22;849;48.780;9.216;2023-04-15T13:18:54;13.60;99.90
1704;DHT22;849;48.780;9.216;2023-04-15T13:21:20;13.80;99.90
1704;DHT22;849;48.780;9.216;2023-04-15T13:23:47;13.90;99.90
1704;DHT22;849;48.780;9.216;2023-04-15T13:26:14;13.90;99.90
1704;DHT22;849;48.780;9.216;2023-04-15T13:28:40;13.90;99.90
1704;DHT22;849;48.780;9.216;2023-04-15T13:31:06;13.80;99.90
1704;DHT22;849;48.780;9.216;2023-04-15T13:33:32;13.70;97.90
1704;DHT22;849;48.780;9.216;2023-04-15T13:35:58;13.30;95.60
1704;DHT22;849;48.780;9.216;2023-04-15T13:38:23;13.70;98.40
1704;DHT22;849;48.780;9.216;2023-04-15T13:40:50;13.30;94.30
1704;DHT22;849;48.780;9.216;2023-04-15T13:43:15;12.90;93.80
1704;DHT22;849;48.780;9.216;2023-04-15T13:45:42;12.90;94.70
1704;DHT22;849;48.780;9.216;2023-04-15T13:48:08;13.10;94.60
1704;DHT22;849;48.780;9.216;2023-04-15T13:50:34;13.40;94.10
1704;DHT22;849;48.780;9.216;2023-04-15T13:52:59;13.80;93.10
1704;DHT22;849;48.780;9.216;2023-04-15T13:55:25;14.00;91.50
1704;DHT22;849;48.780;9.216;2023-04-15T13:57:51;13.80;81.50
1704;DHT22;849;48.780;9.216;2023-04-15T14:00:17;13.70;84.90
1704;DHT22;849;48.780;9.216;2023-04-15T14:02:42;13.40;78.40
1704;DHT22;849;48.780;9.216;2023-04-15T14:05:09;13.60;80.20
1704;DHT22;849;48.780;9.216;2023-04-15T14:07:34;13.60;69.20
1704;DHT22;849;48.780;9.216;2023-04-15T14:10:00;13.40;66.30
1704;DHT22;849;48.780;9.216;2023-04-15T14:12:26;13.40;68.10
1704;DHT22;849;48.780;9.216;2023-04-15T14:14:51;13.40;69.60
1704;DHT22;849;48.780;9.216;2023-04-15T14:17:17;13.40;65.80
1704;DHT22;849;48.780;9.216;2023-04-15T14:19:43;13.50;65.40
1704;DHT22;849;48.780;9.216;2023-04-15T14:22:08;13.50;62.30
1704;DHT22;849;48.780;9.216;2023-04-15T14:24:34;13.70;63.10
1704;DHT22;849;48.780;9.216;2023-04-15T14:26:59;13.60;64.30
1704;DHT22;849;48.780;9.216;2023-04-15T14:29:27;13.50;64.30
1704;DHT22;849;48.780;9.216;2023-04-15T14:31:52;13.40;65.50
1704;DHT22;849;48.780;9.216;2023-04-15T14:34:19;13.20;65.30
1704;DHT22;849;48.780;9.216;2023-04-15T14:36:46;12.90;63.80
1704;DHT22;849;48.780;9.216;2023-04-15T14:39:12;12.90;63.20
1704;DHT22;849;48.780;9.216;2023-04-15T14:41:38;13.10;62.40
1704;DHT22;849;48.780;9.216;2023-04-15T14:44:04;12.90;63.70
1704;DHT22;849;48.780;9.216;2023-04-15T14:46:30;12.70;63.90
1704;DHT22;849;48.780;9.216;2023-04-15T14:48:56;12.90;64.10
1704;DHT22;849;48.780;9.216;2023-04-15T14:51:22;12.80;64.10
1704;DHT22;849;48.780;9.216;2023-04-15T14:53:47;12.90;64.50
1704;DHT22;849;48.780;9.216;2023-04-15T14:56:13;12.80;65.20
1704;DHT22;849;48.780;9.216;2023-04-15T14:58:39;12.90;66.80
1704;DHT22;849;48.780;9.216;2023-04-15T15:01:04;13.00;67.20
1704;DHT22;849;48.780;9.216;2023-04-15T15:03:30;13.10;66.30
1704;DHT22;849;48.780;9.216;2023-04-15T15:05:56;12.90;66.40
1704;DHT22;849;48.780;9.216;2023-04-15T15:08:22;12.50;67.50
1704;DHT22;849;48.780;9.216;2023-04-15T15:10:48;12.50;68.60
1704;DHT22;849;48.780;9.216;2023-04-15T15:13:14;12.60;69.90
1704;DHT22;849;48.780;9.216;2023-04-15T15:15:40;12.40;70.00
1704;DHT22;849;48.780;9.216;2023-04-15T15:18:06;12.20;71.20
1704;DHT22;849;48.780;9.216;2023-04-15T15:20:32;12.20;72.50
1704;DHT22;849;48.780;9.216;2023-04-15T15:22:59;12.20;72.80
1704;DHT22;849;48.780;9.216;2023-04-15T15:25:25;12.40;73.40
1704;DHT22;849;48.780;9.216;2023-04-15T15:27:50;12.50;73.60
1704;DHT22;849;48.780;9.216;2023-04-15T15:30:16;12.30;73.00
1704;DHT22;849;48.780;9.216;2023-04-15T15:32:42;11.90;74.10
1704;DHT22;849;48.780;9.216;2023-04-15T15:35:08;12.20;74.70
1704;DHT22;849;48.780;9.216;2023-04-15T15:37:35;12.50;74.80
1704;DHT22;849;48.780;9.216;2023-04-15T15:40:05;12.60;74.20
1704;DHT22;849;48.780;9.216;2023-04-15T15:42:31;12.40;74.30
1704;DHT22;849;48.780;9.216;2023-04-15T15:44:57;12.60;76.00
1704;DHT22;849;48.780;9.216;2023-04-15T15:47:23;12.90;75.90
1704;DHT22;849;48.780;9.216;2023-04-15T15:49:48;12.90;76.40
1704;DHT22;849;48.780;9.216;2023-04-15T15:52:14;13.10;76.70
1704;DHT22;849;48.780;9.216;2023-04-15T15:54:40;13.30;78.50
1704;DHT22;849;48.780;9.216;2023-04-15T15:57:06;13.40;76.90
1704;DHT22;849;48.780;9.216;2023-04-15T15:59:32;13.40;77.20
1704;DHT22;849;48.780;9.216;2023-04-15T16:01:58;13.50;76.60
1704;DHT22;849;48.780;9.216;2023-04-15T16:04:24;13.10;76.50
1704;DHT22;849;48.780;9.216;2023-04-15T16:06:50;12.90;77.60
1704;DHT22;849;48.780;9.216;2023-04-15T16:09:16;12.80;80.00
1704;DHT22;849;48.780;9.216;2023-04-15T16:11:43;12.50;78.90
1704;DHT22;849;48.780;9.216;2023-04-15T16:14:09;12.20;83.00
1704;DHT22;849;48.780;9.216;2023-04-15T16:16:35;12.10;85.80
1704;DHT22;849;48.780;9.216;2023-04-15T16:19:00;12.10;89.20
1704;DHT22;849;48.780;9.216;2023-04-15T16:21:26;12.10;91.30
1704;DHT22;849;48.780;9.216;2023-04-15T16:23:52;12.20;91.50
1704;DHT22;849;48.780;9.216;2023-04-15T16:26:18;12.10;92.70
1704;DHT22;849;48.780;9.216;2023-04-15T16:28:44;12.20;94.30
1704;DHT22;849;48.780;9.216;2023-04-15T16:31:10;12.30;95.00
1704;DHT22;849;48.780;9.216;2023-04-15T16:33:36;12.40;95.80